createdAt,value
2018-04-27T00:01:31.856Z,57.00
2018-04-27T00:03:59.584Z,56.90
2018-04-27T00:06:27.558Z,56.80
2018-04-27T00:08:55.348Z,56.80
2018-04-27T00:11:23.157Z,56.60
2018-04-27T00:13:50.912Z,56.40
2018-04-27T00:16:18.689Z,56.70
2018-04-27T00:18:48.070Z,57.00
2018-04-27T00:21:15.863Z,57.00
2018-04-27T00:23:43.759Z,57.00
2018-04-27T00:26:11.580Z,56.80
2018-04-27T00:28:39.468Z,57.10
2018-04-27T00:31:09.786Z,57.00
2018-04-27T00:33:37.585Z,56.90
2018-04-27T00:36:08.919Z,56.90
2018-04-27T00:38:36.685Z,57.10
2018-04-27T00:41:05.188Z,57.40
2018-04-27T00:43:33.833Z,57.30
2018-04-27T00:46:01.556Z,57.50
2018-04-27T00:48:29.332Z,57.00
2018-04-27T00:50:57.082Z,56.80
2018-04-27T00:53:24.864Z,57.00
2018-04-27T00:55:52.628Z,57.20
2018-04-27T00:58:20.406Z,57.50
2018-04-27T01:00:48.451Z,57.30
2018-04-27T01:03:16.355Z,57.20
2018-04-27T01:05:44.297Z,57.30
2018-04-27T01:08:14.472Z,57.20
2018-04-27T01:10:42.215Z,57.20
2018-04-27T01:13:10.768Z,57.20
2018-04-27T01:15:38.941Z,57.20
2018-04-27T01:18:06.722Z,57.50
2018-04-27T01:20:34.465Z,57.60
2018-04-27T01:23:03.064Z,57.50
2018-04-27T01:25:31.538Z,57.10
2018-04-27T01:27:59.394Z,57.10
2018-04-27T01:30:27.195Z,57.10
2018-04-27T01:32:55.707Z,57.10
2018-04-27T01:35:24.200Z,57.10
2018-04-27T01:37:53.480Z,57.10
2018-04-27T01:40:23.954Z,57.10
2018-04-27T01:42:51.685Z,57.00
2018-04-27T01:45:19.450Z,57.10
2018-04-27T01:47:47.190Z,57.00
2018-04-27T01:50:15.094Z,57.20
2018-04-27T01:52:42.825Z,57.20
2018-04-27T01:55:10.583Z,57.60
2018-04-27T01:57:38.326Z,57.60
2018-04-27T02:00:06.096Z,57.60
2018-04-27T02:02:38.763Z,57.40
2018-04-27T02:05:07.329Z,57.30
2018-04-27T02:07:35.083Z,57.30
2018-04-27T02:10:02.872Z,58.10
2018-04-27T02:12:30.677Z,57.90
2018-04-27T02:14:58.667Z,61.40
2018-04-27T02:17:27.199Z,59.50
2018-04-27T02:19:55.744Z,59.40
2018-04-27T02:22:23.474Z,60.50
2018-04-27T02:24:51.703Z,59.20
2018-04-27T02:27:19.448Z,61.60
2018-04-27T02:29:47.252Z,62.10
2018-04-27T02:32:15.660Z,59.70
2018-04-27T02:34:43.517Z,62.80
2018-04-27T02:37:18.803Z,63.80
2018-04-27T02:39:47.352Z,61.00
2018-04-27T02:42:15.102Z,60.90
2018-04-27T02:44:42.849Z,61.20
2018-04-27T02:47:10.635Z,60.00
2018-04-27T02:49:38.403Z,59.40
2018-04-27T02:52:07.650Z,62.10
2018-04-27T02:54:35.373Z,60.00
2018-04-27T02:57:03.143Z,60.30
2018-04-27T02:59:30.898Z,62.10
2018-04-27T03:01:58.636Z,61.20
2018-04-27T03:04:28.765Z,60.90
2018-04-27T03:06:56.552Z,59.30
2018-04-27T03:09:25.072Z,63.80
2018-04-27T03:11:52.836Z,63.80
2018-04-27T03:14:20.650Z,63.40
2018-04-27T03:16:48.661Z,61.20
2018-04-27T03:19:16.390Z,59.60
2018-04-27T03:21:45.258Z,60.30
2018-04-27T03:24:13.805Z,61.00
2018-04-27T03:26:44.289Z,61.00
2018-04-27T03:29:12.094Z,62.80
2018-04-27T03:31:40.607Z,64.60
2018-04-27T03:34:09.127Z,63.40
2018-04-27T03:36:38.192Z,63.40
2018-04-27T03:39:06.785Z,61.70
2018-04-27T03:41:34.794Z,61.60
2018-04-27T03:44:02.700Z,63.00
2018-04-27T03:46:31.056Z,64.60
2018-04-27T03:48:58.931Z,62.70
2018-04-27T03:51:27.416Z,62.10
2018-04-27T03:53:55.214Z,62.10
2018-04-27T03:56:22.938Z,64.10
2018-04-27T03:58:50.707Z,66.10
2018-04-27T04:01:30.987Z,64.00
2018-04-27T04:04:12.345Z,62.90
2018-04-27T04:06:40.069Z,61.30
2018-04-27T04:09:08.256Z,61.70
2018-04-27T04:11:36.221Z,61.10
2018-04-27T04:14:05.543Z,60.70
2018-04-27T04:16:35.493Z,62.80
2018-04-27T04:19:03.350Z,66.80
2018-04-27T04:21:31.161Z,65.60
2018-04-27T04:23:59.276Z,65.10
2018-04-27T04:26:27.029Z,64.70
2018-04-27T04:28:54.777Z,66.30
2018-04-27T04:31:22.663Z,63.50
2018-04-27T04:33:50.410Z,62.50
2018-04-27T04:36:18.195Z,60.00
2018-04-27T04:38:45.905Z,61.70
2018-04-27T04:41:13.752Z,62.20
2018-04-27T04:43:41.488Z,64.00
2018-04-27T04:46:10.038Z,65.40
2018-04-27T04:48:37.796Z,65.40
2018-04-27T04:51:05.558Z,63.80
2018-04-27T04:53:33.311Z,60.20
2018-04-27T04:56:01.179Z,59.90
2018-04-27T04:58:29.044Z,60.30
2018-04-27T05:00:56.905Z,59.70
2018-04-27T05:03:24.708Z,56.10
2018-04-27T05:05:52.542Z,56.90
2018-04-27T05:08:20.344Z,54.90
2018-04-27T05:10:48.443Z,55.10
2018-04-27T05:13:16.266Z,57.30
2018-04-27T05:15:44.028Z,58.60
2018-04-27T05:18:12.728Z,58.20
2018-04-27T05:20:40.573Z,58.60
2018-04-27T05:23:08.355Z,60.40
2018-04-27T05:25:36.126Z,59.40
2018-04-27T05:28:03.885Z,55.90
2018-04-27T05:30:31.627Z,56.20
2018-04-27T05:33:05.312Z,56.50
2018-04-27T05:35:33.108Z,57.80
2018-04-27T05:38:00.970Z,55.80
2018-04-27T05:40:28.757Z,54.70
2018-04-27T05:42:56.565Z,54.20
2018-04-27T05:45:24.456Z,55.90
2018-04-27T05:47:52.274Z,56.50
2018-04-27T05:50:20.042Z,54.80
2018-04-27T05:52:47.845Z,53.70
2018-04-27T05:55:15.604Z,52.80
2018-04-27T05:57:43.383Z,53.60
2018-04-27T06:00:11.139Z,53.60
2018-04-27T06:02:38.944Z,51.40
2018-04-27T06:05:06.688Z,50.80
2018-04-27T06:07:35.245Z,47.40
2018-04-27T06:10:03.772Z,49.40
2018-04-27T06:12:31.573Z,49.40
2018-04-27T06:14:59.310Z,51.10
2018-04-27T06:17:27.784Z,52.60
2018-04-27T06:19:55.564Z,52.50
2018-04-27T06:22:23.280Z,51.40
2018-04-27T06:24:51.815Z,49.50
2018-04-27T06:27:19.538Z,49.40
2018-04-27T06:29:48.092Z,49.30
2018-04-27T06:32:15.810Z,49.30
2018-04-27T06:34:43.581Z,46.40
2018-04-27T06:37:11.305Z,46.60
2018-04-27T06:39:39.218Z,48.00
2018-04-27T06:42:06.931Z,48.40
2018-04-27T06:44:34.752Z,48.40
2018-04-27T06:47:02.528Z,49.10
2018-04-27T06:49:30.365Z,48.40
2018-04-27T06:51:58.245Z,50.80
2018-04-27T06:54:26.044Z,49.10
2018-04-27T06:56:53.829Z,48.50
2018-04-27T06:59:21.753Z,45.60
2018-04-27T07:01:49.509Z,45.40
2018-04-27T07:04:17.318Z,46.00
2018-04-27T07:06:45.053Z,47.30
2018-04-27T07:09:12.919Z,47.10
2018-04-27T07:11:40.718Z,47.30
2018-04-27T07:14:08.558Z,48.30
2018-04-27T07:16:36.335Z,47.20
2018-04-27T07:19:04.159Z,47.50
2018-04-27T07:21:31.993Z,44.80
2018-04-27T07:23:59.773Z,46.80
2018-04-27T07:26:27.571Z,47.10
2018-04-27T07:28:56.068Z,49.20
2018-04-27T07:31:23.867Z,49.20
2018-04-27T07:33:51.633Z,47.40
2018-04-27T07:36:19.515Z,49.00
2018-04-27T07:38:47.243Z,48.20
2018-04-27T07:41:15.056Z,48.90
2018-04-27T07:43:42.842Z,47.80
2018-04-27T07:46:10.725Z,46.90
2018-04-27T07:48:38.573Z,47.00
2018-04-27T07:51:06.403Z,45.60
2018-04-27T07:53:34.206Z,45.70
2018-04-27T07:56:03.031Z,48.30
2018-04-27T07:58:30.854Z,50.20
2018-04-27T08:00:58.715Z,48.70
2018-04-27T08:03:26.550Z,47.60
2018-04-27T08:05:54.317Z,49.50
2018-04-27T08:08:22.884Z,45.70
2018-04-27T08:10:50.674Z,45.60
2018-04-27T08:13:18.483Z,44.40
2018-04-27T08:15:46.321Z,44.60
2018-04-27T08:18:14.174Z,45.90
2018-04-27T08:20:42.066Z,46.90
2018-04-27T08:23:09.872Z,43.90
2018-04-27T08:25:37.659Z,44.50
2018-04-27T08:28:06.242Z,43.50
2018-04-27T08:30:34.078Z,43.60
2018-04-27T08:33:01.984Z,42.80
2018-04-27T08:35:29.710Z,43.00
2018-04-27T08:37:57.494Z,43.90
2018-04-27T08:40:25.269Z,42.90
2018-04-27T08:42:52.984Z,41.90
2018-04-27T08:45:20.739Z,44.20
2018-04-27T08:47:48.452Z,42.20
2018-04-27T08:50:16.273Z,42.20
2018-04-27T08:52:44.039Z,44.30
2018-04-27T08:55:11.869Z,43.90
2018-04-27T08:57:39.700Z,41.90
2018-04-27T09:00:07.573Z,39.80
2018-04-27T09:02:36.088Z,41.50
2018-04-27T09:05:03.873Z,41.40
2018-04-27T09:07:31.628Z,42.60
2018-04-27T09:09:59.480Z,41.90
2018-04-27T09:12:27.224Z,41.90
2018-04-27T09:14:55.017Z,43.40
2018-04-27T09:17:22.744Z,44.60
2018-04-27T09:19:51.270Z,41.30
2018-04-27T09:22:19.090Z,41.30
2018-04-27T09:24:46.861Z,43.50
2018-04-27T09:27:14.628Z,45.50
2018-04-27T09:29:42.372Z,45.70
2018-04-27T09:32:10.204Z,44.60
2018-04-27T09:34:38.784Z,43.80
2018-04-27T09:37:06.502Z,44.20
2018-04-27T09:39:34.205Z,44.20
2018-04-27T09:42:01.977Z,44.80
2018-04-27T09:44:29.775Z,45.10
2018-04-27T09:46:57.616Z,45.20
2018-04-27T09:49:25.515Z,44.10
2018-04-27T09:51:53.380Z,41.70
2018-04-27T09:54:21.127Z,44.90
2018-04-27T09:56:49.697Z,43.10
2018-04-27T09:59:18.212Z,41.30
2018-04-27T10:01:46.806Z,39.30
2018-04-27T10:04:14.552Z,39.20
2018-04-27T10:06:43.197Z,41.10
2018-04-27T10:09:10.963Z,41.10
2018-04-27T10:11:39.549Z,41.70
2018-04-27T10:14:08.078Z,43.80
2018-04-27T10:16:35.837Z,43.90
2018-04-27T10:19:03.881Z,42.20
2018-04-27T10:21:31.725Z,41.20
2018-04-27T10:23:59.545Z,41.60
2018-04-27T10:26:27.344Z,39.20
2018-04-27T10:28:55.886Z,38.60
2018-04-27T10:31:23.651Z,38.60
2018-04-27T10:33:51.410Z,42.70
2018-04-27T10:36:19.199Z,38.60
2018-04-27T10:38:47.319Z,40.50
2018-04-27T10:41:15.132Z,42.90
2018-04-27T10:43:43.696Z,39.10
2018-04-27T10:46:11.481Z,39.00
2018-04-27T10:48:39.311Z,40.60
2018-04-27T10:51:07.102Z,36.90
2018-04-27T10:53:35.026Z,42.60
2018-04-27T10:56:02.962Z,37.90
2018-04-27T10:58:31.575Z,38.40
2018-04-27T11:00:59.338Z,38.20
2018-04-27T11:03:27.248Z,41.00
2018-04-27T11:05:55.836Z,35.10
2018-04-27T11:08:23.667Z,35.00
2018-04-27T11:10:51.476Z,36.80
2018-04-27T11:13:19.371Z,40.00
2018-04-27T11:15:47.193Z,35.60
2018-04-27T11:18:15.002Z,40.90
2018-04-27T11:20:42.917Z,35.80
2018-04-27T11:23:10.717Z,32.50
2018-04-27T11:25:39.316Z,41.40
2018-04-27T11:28:07.967Z,32.20
2018-04-27T11:30:35.726Z,32.50
2018-04-27T11:33:03.471Z,34.80
2018-04-27T11:35:32.059Z,40.10
2018-04-27T11:37:59.945Z,40.10
2018-04-27T11:40:28.452Z,34.60
2018-04-27T11:42:56.241Z,34.40
2018-04-27T11:45:24.025Z,36.40
2018-04-27T11:47:51.815Z,39.10
2018-04-27T11:50:19.643Z,34.90
2018-04-27T11:52:48.272Z,33.60
2018-04-27T11:55:16.126Z,34.00
2018-04-27T11:57:44.728Z,38.70
2018-04-27T12:00:13.352Z,31.90
2018-04-27T12:02:41.101Z,31.80
2018-04-27T12:05:08.962Z,36.20
2018-04-27T12:07:36.708Z,35.60
2018-04-27T12:10:04.481Z,38.50
2018-04-27T12:12:32.290Z,34.90
2018-04-27T12:15:00.154Z,39.20
2018-04-27T12:17:27.957Z,36.00
2018-04-27T12:19:56.501Z,37.70
2018-04-27T12:22:24.269Z,37.70
2018-04-27T12:24:52.088Z,35.90
2018-04-27T12:27:20.295Z,39.10
2018-04-27T12:29:48.812Z,37.10
2018-04-27T12:32:16.626Z,37.20
2018-04-27T12:34:44.327Z,35.00
2018-04-27T12:37:12.220Z,36.60
2018-04-27T12:39:40.037Z,36.00
2018-04-27T12:42:07.888Z,33.90
2018-04-27T12:44:45.021Z,36.40
2018-04-27T12:47:13.099Z,35.90
2018-04-27T12:49:40.921Z,33.40
2018-04-27T12:52:09.261Z,34.50
2018-04-27T12:54:37.081Z,34.40
2018-04-27T12:57:05.329Z,33.20
2018-04-27T12:59:33.027Z,31.80
2018-04-27T13:02:00.797Z,33.40
2018-04-27T13:04:28.513Z,35.00
2018-04-27T13:06:56.312Z,33.10
2018-04-27T13:09:24.068Z,34.90
2018-04-27T13:11:51.903Z,36.60
2018-04-27T13:14:19.737Z,34.00
2018-04-27T13:16:47.496Z,34.00
2018-04-27T13:19:15.283Z,35.10
2018-04-27T13:21:42.959Z,33.00
2018-04-27T13:24:10.746Z,31.70
2018-04-27T13:26:38.688Z,37.10
2018-04-27T13:29:06.400Z,33.80
2018-04-27T13:31:34.137Z,34.70
2018-04-27T13:34:01.848Z,35.20
2018-04-27T13:36:29.532Z,37.90
2018-04-27T13:38:58.120Z,33.40
2018-04-27T13:41:25.848Z,33.60
2018-04-27T13:43:53.604Z,34.50
2018-04-27T13:46:21.346Z,30.50
2018-04-27T13:48:49.099Z,33.80
2018-04-27T13:51:16.871Z,31.60
2018-04-27T13:53:44.716Z,32.10
2018-04-27T13:56:12.488Z,34.00
2018-04-27T13:58:40.303Z,32.70
2018-04-27T14:01:08.090Z,34.10
2018-04-27T14:03:35.945Z,35.70
2018-04-27T14:06:03.759Z,37.30
2018-04-27T14:08:31.529Z,32.70
2018-04-27T14:10:59.303Z,31.90
2018-04-27T14:13:27.105Z,32.90
2018-04-27T14:15:54.947Z,34.90
2018-04-27T14:18:22.693Z,34.90
2018-04-27T14:20:51.259Z,32.40
2018-04-27T14:23:19.022Z,32.40
2018-04-27T14:25:46.748Z,33.30
2018-04-27T14:28:14.512Z,34.10
2018-04-27T14:30:43.026Z,38.00
2018-04-27T14:33:10.831Z,38.00
2018-04-27T14:35:38.589Z,30.00
2018-04-27T14:38:06.329Z,36.70
2018-04-27T14:40:34.915Z,35.00
2018-04-27T14:43:02.669Z,34.70
2018-04-27T14:45:31.247Z,34.60
2018-04-27T14:47:59.026Z,34.30
2018-04-27T14:50:26.779Z,31.50
2018-04-27T14:52:54.580Z,31.00
2018-04-27T14:55:22.348Z,31.50
2018-04-27T14:57:50.198Z,33.00
2018-04-27T15:00:17.991Z,35.70
2018-04-27T15:02:45.858Z,33.80
2018-04-27T15:05:14.314Z,33.00
2018-04-27T15:07:43.133Z,32.90
2018-04-27T15:10:11.676Z,30.00
2018-04-27T15:12:39.460Z,29.90
2018-04-27T15:15:07.220Z,31.70
2018-04-27T15:17:35.002Z,31.90
2018-04-27T15:20:02.725Z,37.80
2018-04-27T15:22:31.251Z,34.50
2018-04-27T15:24:59.732Z,33.50
2018-04-27T15:27:28.318Z,32.80
2018-04-27T15:29:56.075Z,32.50
2018-04-27T15:32:23.833Z,36.40
2018-04-27T15:34:51.554Z,30.20
2018-04-27T15:37:20.113Z,32.30
2018-04-27T15:39:47.933Z,32.20
2018-04-27T15:42:16.453Z,32.00
2018-04-27T15:44:44.250Z,31.90
2018-04-27T15:47:12.772Z,32.40
2018-04-27T15:49:40.588Z,32.20
2018-04-27T15:52:08.388Z,34.50
2018-04-27T15:54:36.200Z,32.50
2018-04-27T15:57:03.916Z,32.40
2018-04-27T15:59:31.803Z,32.60
2018-04-27T16:01:59.600Z,34.20
2018-04-27T16:04:27.445Z,34.20
2018-04-27T16:06:56.011Z,30.80
2018-04-27T16:09:23.911Z,30.80
2018-04-27T16:11:52.525Z,34.10
2018-04-27T16:14:21.141Z,31.70
2018-04-27T16:16:48.976Z,31.70
2018-04-27T16:19:17.672Z,32.90
2018-04-27T16:21:46.270Z,32.80
2018-04-27T16:24:14.093Z,32.60
2018-04-27T16:26:41.952Z,34.10
2018-04-27T16:29:10.513Z,37.10
2018-04-27T16:31:38.407Z,36.90
2018-04-27T16:34:06.176Z,35.60
2018-04-27T16:36:33.975Z,37.70
2018-04-27T16:39:01.748Z,33.20
2018-04-27T16:41:30.022Z,33.00
2018-04-27T16:43:59.768Z,37.90
2018-04-27T16:46:27.634Z,34.20
2018-04-27T16:48:55.714Z,32.60
2018-04-27T16:51:23.600Z,32.40
2018-04-27T16:53:51.374Z,38.00
2018-04-27T16:56:19.357Z,37.60
2018-04-27T16:58:47.247Z,35.30
2018-04-27T17:01:16.615Z,38.80
2018-04-27T17:03:44.455Z,38.70
2018-04-27T17:06:13.066Z,35.30
2018-04-27T17:08:42.242Z,35.40
2018-04-27T17:11:10.841Z,32.80
2018-04-27T17:13:38.753Z,32.70
2018-04-27T17:16:15.124Z,34.80
2018-04-27T17:18:45.596Z,31.60
2018-04-27T17:21:14.856Z,35.60
2018-04-27T17:23:46.307Z,34.60
2018-04-27T17:26:14.380Z,34.30
2018-04-27T17:28:43.225Z,33.50
2018-04-27T17:31:14.282Z,39.10
2018-04-27T17:33:48.279Z,38.80
2018-04-27T17:36:16.990Z,32.30
2018-04-27T17:38:46.912Z,36.50
2018-04-27T17:41:16.652Z,38.90
2018-04-27T17:43:44.969Z,38.50
2018-04-27T17:46:16.014Z,39.90
2018-04-27T17:48:48.121Z,38.60
2018-04-27T17:51:17.012Z,32.30
2018-04-27T17:53:46.367Z,35.60
2018-04-27T17:56:19.559Z,32.60
2018-04-27T17:58:49.521Z,32.40
2018-04-27T18:01:18.857Z,36.80
2018-04-27T18:03:47.105Z,37.30
2018-04-27T18:06:15.160Z,36.60
2018-04-27T18:08:45.297Z,37.10
2018-04-27T18:11:14.462Z,33.90
2018-04-27T18:13:43.934Z,34.10
2018-04-27T18:16:13.255Z,38.80
2018-04-27T18:25:02.649Z,38.90
2018-04-27T18:27:30.772Z,34.30
2018-04-27T18:29:58.616Z,40.00
2018-04-27T18:32:27.389Z,36.00
2018-04-27T18:34:56.752Z,34.50
2018-04-27T18:37:35.257Z,34.40
2018-04-27T18:40:05.813Z,36.60
2018-04-27T18:42:35.114Z,36.10
2018-04-27T18:45:04.590Z,37.50
2018-04-27T18:50:20.121Z,38.90
2018-04-27T18:52:48.989Z,37.10
2018-04-27T18:55:16.988Z,37.10
2018-04-27T18:57:44.984Z,37.70
2018-04-27T19:03:24.898Z,37.80
2018-04-27T19:05:52.719Z,39.60
2018-04-27T19:08:25.150Z,40.50
2018-04-27T19:11:09.758Z,39.50
2018-04-27T19:13:46.140Z,39.30
2018-04-27T19:19:05.464Z,38.30
2018-04-27T19:21:38.880Z,38.70
2018-04-27T19:24:17.272Z,38.60
2018-04-27T19:26:46.813Z,38.80
2018-04-27T19:29:19.493Z,38.70
2018-04-27T19:31:47.415Z,38.40
2018-04-27T19:34:16.218Z,39.80
2018-04-27T19:36:44.077Z,38.60
2018-04-27T19:39:11.947Z,39.70
2018-04-27T19:41:39.773Z,39.70
2018-04-27T19:44:07.579Z,39.70
2018-04-27T19:46:35.492Z,39.80
2018-04-27T19:49:04.126Z,40.40
2018-04-27T19:51:31.942Z,40.30
2018-04-27T19:53:59.806Z,40.50
2018-04-27T19:56:28.381Z,40.50
2018-04-27T19:58:56.270Z,40.50
2018-04-27T20:01:24.131Z,41.00
2018-04-27T20:03:51.989Z,39.80
2018-04-27T20:06:19.798Z,40.30
2018-04-27T20:08:47.964Z,39.80
2018-04-27T20:11:15.862Z,41.30
2018-04-27T20:13:43.783Z,42.60
2018-04-27T20:16:11.674Z,43.90
2018-04-27T20:18:39.524Z,43.80
2018-04-27T20:21:08.078Z,45.50
2018-04-27T20:23:35.896Z,45.50
2018-04-27T20:26:05.672Z,43.80
2018-04-27T20:28:35.090Z,42.60
2018-04-27T20:31:02.985Z,41.70
2018-04-27T20:33:30.909Z,41.30
2018-04-27T20:35:59.367Z,41.30
2018-04-27T20:38:32.002Z,41.50
2018-04-27T20:41:02.385Z,41.70
2018-04-27T20:43:30.149Z,40.50
2018-04-27T20:45:57.949Z,40.30
2018-04-27T20:48:25.744Z,47.30
2018-04-27T20:50:58.385Z,43.80
2018-04-27T20:53:26.187Z,44.30
2018-04-27T20:56:04.767Z,44.30
2018-04-27T20:58:32.569Z,43.20
2018-04-27T21:01:00.388Z,43.10
2018-04-27T21:03:28.173Z,43.00
2018-04-27T21:05:56.091Z,41.10
2018-04-27T21:08:23.914Z,44.30
2018-04-27T21:10:51.755Z,43.90
2018-04-27T21:13:19.531Z,43.20
2018-04-27T21:15:48.220Z,43.20
2018-04-27T21:18:16.162Z,43.20
2018-04-27T21:20:44.092Z,43.20
2018-04-27T21:23:11.924Z,43.60
2018-04-27T21:25:40.204Z,43.60
2018-04-27T21:28:31.973Z,43.60
2018-04-27T21:37:17.359Z,45.00
2018-04-27T21:42:50.278Z,44.80
2018-04-27T21:48:18.608Z,46.40
2018-04-27T21:50:47.781Z,47.50
2018-04-27T21:53:17.862Z,46.70
2018-04-27T21:55:50.124Z,46.20
2018-04-27T21:58:26.880Z,45.50
2018-04-27T22:00:54.998Z,46.00
2018-04-27T22:03:23.867Z,46.20
2018-04-27T22:06:09.615Z,45.90
2018-04-27T22:08:43.519Z,45.60
2018-04-27T22:14:29.379Z,49.90
2018-04-27T22:17:00.146Z,50.10
2018-04-27T22:19:28.334Z,49.30
2018-04-27T22:21:56.338Z,47.70
2018-04-27T22:24:29.864Z,46.80
2018-04-27T22:27:10.769Z,46.30
2018-04-27T22:29:40.707Z,46.40
2018-04-27T22:32:14.322Z,46.30
2018-04-27T22:34:45.121Z,46.10
2018-04-27T22:37:13.024Z,46.00
2018-04-27T22:39:49.775Z,45.90
2018-04-27T22:42:22.223Z,46.10
2018-04-27T22:44:50.860Z,46.20
2018-04-27T22:47:32.062Z,46.30
2018-04-27T22:49:59.873Z,46.70
2018-04-27T22:52:36.309Z,47.00
2018-04-27T22:55:04.100Z,46.90
2018-04-27T22:57:37.603Z,46.90
2018-04-27T23:00:08.923Z,47.30
2018-04-27T23:02:36.778Z,47.60
2018-04-27T23:05:08.454Z,47.60
2018-04-27T23:07:46.241Z,47.30
2018-04-27T23:10:15.054Z,47.30
2018-04-27T23:15:51.781Z,47.80
2018-04-27T23:18:20.358Z,47.60
2018-04-27T23:21:04.047Z,48.60
2018-04-27T23:23:31.822Z,48.40
2018-04-27T23:26:04.848Z,48.30
2018-04-27T23:28:32.687Z,48.40
2018-04-27T23:31:00.447Z,48.20
2018-04-27T23:33:28.246Z,47.90
2018-04-27T23:35:55.988Z,48.20
2018-04-27T23:38:23.881Z,47.90
2018-04-27T23:40:51.768Z,48.30
2018-04-27T23:43:20.451Z,48.50
2018-04-27T23:45:48.219Z,48.30
2018-04-27T23:48:17.017Z,48.00
2018-04-27T23:50:50.929Z,48.80
2018-04-27T23:53:21.287Z,48.60
2018-04-27T23:55:50.386Z,48.00
2018-04-27T23:58:26.837Z,47.90
